Time;durP1;ratioP1;P1;durP2;ratioP2;P2;SDS_P1;SDS_P2;PMS_P1;PMS_P2;Temp;Humidity;BMP_temperature;BMP_pressure;BME280_temperature;BME280_humidity;BME280_pressure;Samples;Min_cycle;Max_cycle;Signal;HPM_P1;HPM_P2
2022/09/29 00:01:22;;;;;;;0.10;0.10;;;;;;;4.75;100.00;95016.13;4962802;28;20169;-74
2022/09/29 00:04:08;;;;;;;0.10;0.10;;;;;;;4.74;100.00;95027.75;4965555;28;20113;-74
2022/09/29 00:06:54;;;;;;;0.10;0.10;;;;;;;4.70;100.00;95030.09;4965978;28;20044;-74
2022/09/29 00:09:40;;;;;;;0.10;0.10;;;;;;;4.71;100.00;95031.72;4964948;28;20043;-74
2022/09/29 00:12:25;;;;;;;0.10;0.10;;;;;;;4.67;100.00;95022.66;4964126;28;20046;-74
2022/09/29 00:15:12;;;;;;;0.10;0.10;;;;;;;4.62;100.00;95029.75;4968576;28;20675;-74
2022/09/29 00:17:59;;;;;;;0.10;0.10;;;;;;;4.57;100.00;95033.13;4969717;28;20562;-74
2022/09/29 00:20:55;;;;;;;0.10;0.10;;;;;;;4.45;100.00;95032.44;4956529;28;20069;-73
2022/09/29 00:23:41;;;;;;;0.10;0.10;;;;;;;4.26;100.00;95023.16;4966876;28;20043;-74
2022/09/29 00:26:27;;;;;;;0.10;0.10;;;;;;;4.16;100.00;95029.91;4969462;28;20052;-74
2022/09/29 00:29:13;;;;;;;0.10;0.10;;;;;;;4.08;100.00;95032.16;4969128;28;20034;-74
2022/09/29 00:31:59;;;;;;;0.10;0.10;;;;;;;4.02;100.00;95031.28;4965695;28;20436;-76
2022/09/29 00:34:45;;;;;;;0.10;0.10;;;;;;;4.05;100.00;95038.75;4969559;28;20046;-75
2022/09/29 00:37:31;;;;;;;0.10;0.10;;;;;;;3.85;100.00;95019.91;4969521;28;20052;-74
2022/09/29 00:40:16;;;;;;;0.10;0.10;;;;;;;3.74;100.00;95026.09;4967524;28;20461;-74
2022/09/29 00:43:02;;;;;;;0.10;0.10;;;;;;;3.67;100.00;95034.19;4967002;28;20046;-75
2022/09/29 00:45:52;;;;;;;0.10;0.10;;;;;;;3.56;100.00;95022.59;4968690;28;20040;-74
2022/09/29 00:48:39;;;;;;;0.10;0.10;;;;;;;3.55;100.00;95025.50;4964949;28;20039;-74
2022/09/29 00:51:27;;;;;;;0.10;0.10;;;;;;;3.41;100.00;95024.97;4969928;28;20034;-74
2022/09/29 00:54:14;;;;;;;0.10;0.10;;;;;;;3.34;100.00;95029.63;4970913;28;20046;-74
2022/09/29 00:57:01;;;;;;;0.10;0.10;;;;;;;3.43;100.00;95025.56;4970793;28;20356;-74
2022/09/29 01:00:11;;;;;;;0.10;0.10;;;;;;;3.43;100.00;95025.56;4971807;28;20113;-74
2022/09/29 01:03:13;;;;;;;0.10;0.10;;;;;;;3.31;100.00;95017.69;4948127;28;20130;-74
2022/09/29 01:06:09;;;;;;;0.10;0.10;;;;;;;3.29;100.00;95022.41;4968482;28;20054;-74
2022/09/29 01:09:14;;;;;;;0.10;0.10;;;;;;;3.32;100.00;95026.41;4966129;28;20050;-74
2022/09/29 01:12:04;;;;;;;0.10;0.10;;;;;;;3.29;100.00;95022.41;4952395;28;20126;-74
2022/09/29 01:14:52;;;;;;;0.10;0.10;;;;;;;3.28;100.00;95030.59;4971449;28;20383;-75
2022/09/29 01:17:44;;;;;;;0.10;0.10;;;;;;;3.27;100.00;95013.13;4968467;28;20397;-74
2022/09/29 01:20:34;;;;;;;0.10;0.10;;;;;;;3.15;100.00;95026.38;4968641;28;20096;-74
2022/09/29 01:23:48;;;;;;;0.10;0.10;;;;;;;3.07;100.00;95024.91;4994244;28;20090;-75
2022/09/29 01:26:55;;;;;;;0.10;0.10;;;;;;;2.98;100.00;95015.78;4988462;28;20042;-75
2022/09/29 01:29:49;;;;;;;0.08;0.08;;;;;;;3.04;100.00;95022.75;4965806;28;20069;-74
2022/09/29 01:32:54;;;;;;;0.10;0.10;;;;;;;3.07;100.00;95029.41;4966470;28;20169;-74
2022/09/29 01:35:58;;;;;;;0.10;0.10;;;;;;;2.98;100.00;95017.59;4968009;28;20564;-74
2022/09/29 01:38:53;;;;;;;0.10;0.10;;;;;;;3.06;100.00;95030.44;4964872;28;20481;-75
2022/09/29 01:41:50;;;;;;;0.10;0.10;;;;;;;3.14;100.00;95026.63;4963422;28;20042;-74
2022/09/29 01:44:50;;;;;;;0.10;0.10;;;;;;;3.13;100.00;95033.75;4964594;28;20043;-74
2022/09/29 01:47:41;;;;;;;0.10;0.10;;;;;;;3.17;100.00;95026.94;4965166;28;20545;-73
2022/09/29 01:50:37;;;;;;;0.10;0.10;;;;;;;3.11;100.00;95025.25;4955413;28;20038;-75
2022/09/29 01:53:29;;;;;;;0.10;0.10;;;;;;;3.00;100.00;95029.53;4967528;28;20057;-74
2022/09/29 01:56:29;;;;;;;0.10;0.10;;;;;;;3.00;100.00;95039.31;4951667;28;20042;-74
2022/09/29 01:59:31;;;;;;;0.10;0.10;;;;;;;3.00;100.00;95034.03;4966829;28;20851;-74
2022/09/29 02:02:35;;;;;;;0.10;0.10;;;;;;;3.02;100.00;95027.47;4966384;28;20251;-74
2022/09/29 02:05:35;;;;;;;0.10;0.10;;;;;;;2.99;100.00;95021.84;4943412;28;20524;-75
2022/09/29 02:08:41;;;;;;;0.10;0.10;;;;;;;2.89;100.00;95030.41;4965601;28;20137;-74
2022/09/29 02:11:31;;;;;;;0.10;0.10;;;;;;;2.91;100.00;95025.66;4967959;28;20084;-74
2022/09/29 02:14:24;;;;;;;0.10;0.10;;;;;;;2.84;100.00;95030.28;4967901;28;20394;-74
2022/09/29 02:17:18;;;;;;;0.10;0.10;;;;;;;2.88;100.00;95028.78;4966536;28;20042;-74
2022/09/29 02:20:05;;;;;;;0.10;0.10;;;;;;;2.73;100.00;95028.50;4958183;28;20049;-74
2022/09/29 02:22:51;;;;;;;0.10;0.10;;;;;;;2.79;100.00;95028.34;4966944;28;20460;-74
2022/09/29 02:25:39;;;;;;;0.10;0.10;;;;;;;2.73;100.00;95026.66;4967398;28;20245;-74
2022/09/29 02:28:25;;;;;;;0.10;0.10;;;;;;;2.82;100.00;95035.00;4968127;28;20125;-74
2022/09/29 02:31:11;;;;;;;0.10;0.10;;;;;;;2.88;100.00;95027.97;4965107;28;20054;-74
2022/09/29 02:33:59;;;;;;;0.10;0.10;;;;;;;2.88;100.00;95022.69;4965830;28;20038;-75
2022/09/29 02:36:58;;;;;;;0.10;0.10;;;;;;;2.82;100.00;95026.28;4958406;28;20061;-75
2022/09/29 02:40:17;;;;;;;0.10;0.10;;;;;;;2.79;100.00;95036.25;4950124;28;20061;-74
2022/09/29 02:43:17;;;;;;;0.10;0.10;;;;;;;2.80;100.00;95039.69;4965661;28;20039;-75
2022/09/29 02:46:34;;;;;;;0.10;0.10;;;;;;;2.79;100.00;95035.47;4966831;28;20134;-74
2022/09/29 02:50:07;;;;;;;0.10;0.10;;;;;;;2.84;100.00;95030.28;4965978;28;20079;-75
2022/09/29 02:53:29;;;;;;;0.10;0.10;;;;;;;2.75;100.00;95034.34;4963658;28;20244;-74
2022/09/29 02:56:33;;;;;;;0.10;0.10;;;;;;;2.68;100.00;95034.47;4956273;28;20035;-76
2022/09/29 02:59:34;;;;;;;0.10;0.10;;;;;;;2.77;100.00;95035.69;4954793;28;20268;-74
2022/09/29 03:02:25;;;;;;;0.10;0.10;;;;;;;2.72;100.00;95037.44;4964831;28;20236;-75
2022/09/29 03:05:13;;;;;;;0.10;0.10;;;;;;;2.64;100.00;95040.44;4967474;28;20053;-74
2022/09/29 03:07:59;;;;;;;0.10;0.10;;;;;;;2.66;100.00;95038.38;4955645;28;20054;-74
2022/09/29 03:10:45;;;;;;;0.20;0.10;;;;;;;2.67;100.00;95043.44;4962789;28;20042;-74
2022/09/29 03:13:31;;;;;;;0.10;0.10;;;;;;;2.67;100.00;95040.78;4965399;28;20789;-75
2022/09/29 03:16:17;;;;;;;0.00;0.00;;;;;;;2.63;100.00;95041.47;4961916;28;20466;-75
2022/09/29 03:19:04;;;;;;;0.10;0.10;;;;;;;2.51;100.00;95029.09;4965096;28;20112;-75
2022/09/29 03:21:50;;;;;;;0.10;0.10;;;;;;;2.45;100.00;95037.94;4963531;28;20039;-75
2022/09/29 03:24:36;;;;;;;0.10;0.10;;;;;;;2.34;100.00;95032.69;4965937;28;20125;-75
2022/09/29 03:27:22;;;;;;;0.10;0.10;;;;;;;2.29;100.00;95038.66;4964567;28;20041;-75
2022/09/29 03:30:08;;;;;;;0.10;0.10;;;;;;;2.26;100.00;95047.06;4962884;28;20046;-75
2022/09/29 03:32:54;;;;;;;0.63;0.20;;;;;;;2.30;100.00;95040.25;4964498;28;20743;-75
2022/09/29 03:35:40;;;;;;;0.10;0.10;;;;;;;2.24;100.00;95036.69;4965794;28;20046;-75
2022/09/29 03:38:28;;;;;;;0.10;0.10;;;;;;;2.26;100.00;95040.94;4961250;28;20887;-75
2022/09/29 03:41:14;;;;;;;0.10;0.10;;;;;;;2.22;100.00;95038.78;4963740;28;20774;-75
2022/09/29 03:44:00;;;;;;;0.10;0.10;;;;;;;2.09;100.00;95043.47;4965838;28;20602;-75
2022/09/29 03:46:46;;;;;;;0.10;0.10;;;;;;;2.09;100.00;95043.47;4965023;28;20127;-75
2022/09/29 03:49:32;;;;;;;0.10;0.10;;;;;;;2.14;100.00;95040.97;4964982;28;20465;-75
2022/09/29 03:52:18;;;;;;;0.13;0.10;;;;;;;2.18;100.00;95039.47;4968472;28;20117;-75
2022/09/29 03:55:05;;;;;;;0.10;0.10;;;;;;;2.26;100.00;95039.13;4967421;28;20499;-75
2022/09/29 03:57:51;;;;;;;0.13;0.10;;;;;;;2.22;100.00;95049.34;4968415;28;20196;-74
2022/09/29 04:00:36;;;;;;;0.10;0.10;;;;;;;2.19;100.00;95054.28;4964389;28;20374;-75
2022/09/29 04:03:22;;;;;;;0.10;0.10;;;;;;;2.14;100.00;95046.25;4968583;28;20035;-74
2022/09/29 04:06:08;;;;;;;0.20;0.10;;;;;;;2.13;100.00;95053.34;4969457;28;20272;-74
2022/09/29 04:08:54;;;;;;;0.10;0.10;;;;;;;2.20;100.00;95059.31;4969527;28;20046;-75
2022/09/29 04:11:40;;;;;;;0.10;0.10;;;;;;;2.25;100.00;95061.25;4967608;28;20371;-74
2022/09/29 04:14:25;;;;;;;0.10;0.10;;;;;;;2.28;100.00;95057.38;4968615;28;20514;-74
2022/09/29 04:17:11;;;;;;;0.13;0.13;;;;;;;2.30;100.00;95058.75;4968445;28;20120;-75
2022/09/29 04:19:57;;;;;;;0.10;0.10;;;;;;;2.33;100.00;95060.09;4970772;28;20097;-75
2022/09/29 04:22:43;;;;;;;0.10;0.10;;;;;;;2.34;100.00;95065.19;4968331;28;20351;-74
2022/09/29 04:25:29;;;;;;;0.10;0.10;;;;;;;2.40;100.00;95061.59;4957979;28;20316;-74
2022/09/29 04:28:15;;;;;;;0.15;0.15;;;;;;;2.39;100.00;95060.00;4968297;28;20043;-74
2022/09/29 04:31:15;;;;;;;0.13;0.10;;;;;;;2.51;100.00;95068.72;4970434;28;20552;-74
2022/09/29 04:34:01;;;;;;;0.15;0.15;;;;;;;2.58;100.00;95075.72;4969997;28;20489;-74
2022/09/29 04:36:46;;;;;;;0.10;0.10;;;;;;;2.48;100.00;95055.16;4969000;28;20144;-75
2022/09/29 04:39:32;;;;;;;0.10;0.10;;;;;;;2.43;100.00;95069.06;4969115;28;20414;-75
2022/09/29 04:42:19;;;;;;;0.10;0.10;;;;;;;2.41;100.00;95059.75;4946357;28;20132;-75
2022/09/29 04:45:05;;;;;;;0.10;0.10;;;;;;;2.50;100.00;95071.59;4969766;28;20555;-74
2022/09/29 04:47:51;;;;;;;0.10;0.10;;;;;;;2.57;100.00;95074.91;4967935;28;20058;-74
2022/09/29 04:50:37;;;;;;;0.10;0.10;;;;;;;2.59;100.00;95066.75;4965151;28;20042;-74
2022/09/29 04:53:23;;;;;;;0.10;0.10;;;;;;;2.63;100.00;95067.88;4968391;28;20050;-75
2022/09/29 04:56:08;;;;;;;0.10;0.10;;;;;;;2.75;100.00;95069.47;4969745;28;20045;-75
2022/09/29 04:58:54;;;;;;;0.10;0.10;;;;;;;2.71;100.00;95056.97;4967713;28;20564;-74
2022/09/29 05:01:40;;;;;;;0.10;0.10;;;;;;;2.66;100.00;95055.03;4965588;28;20101;-74
2022/09/29 05:04:26;;;;;;;0.10;0.10;;;;;;;2.76;100.00;95065.00;4967570;28;21196;-74
2022/09/29 05:07:13;;;;;;;0.10;0.10;;;;;;;2.84;100.00;95069.91;4969152;28;20125;-74
2022/09/29 05:09:59;;;;;;;0.10;0.10;;;;;;;2.89;100.00;95075.31;4958564;28;20046;-74
2022/09/29 05:12:49;;;;;;;0.10;0.10;;;;;;;2.84;100.00;95072.56;4953882;28;20311;-74
2022/09/29 05:15:35;;;;;;;0.10;0.10;;;;;;;2.78;100.00;95076.13;4955214;28;20611;-74
2022/09/29 05:18:22;;;;;;;0.10;0.10;;;;;;;2.78;100.00;95076.13;4969507;28;20039;-74
2022/09/29 05:21:08;;;;;;;0.10;0.10;;;;;;;2.79;100.00;95078.53;4966817;28;20053;-74
2022/09/29 05:23:55;;;;;;;0.10;0.10;;;;;;;2.82;100.00;95085.22;4956344;28;20202;-75
2022/09/29 05:26:41;;;;;;;0.10;0.10;;;;;;;2.81;100.00;95083.59;4968253;28;20047;-74
2022/09/29 05:29:27;;;;;;;0.10;0.10;;;;;;;2.85;100.00;95091.84;4968896;28;20046;-74
2022/09/29 05:32:12;;;;;;;0.10;0.10;;;;;;;2.83;100.00;95083.38;4952368;28;20476;-74
2022/09/29 05:34:58;;;;;;;0.10;0.10;;;;;;;2.81;100.00;95088.09;4967214;28;20042;-75
2022/09/29 05:37:45;;;;;;;0.17;0.10;;;;;;;2.83;100.00;95083.38;4966071;28;20210;-74
2022/09/29 05:40:31;;;;;;;0.10;0.10;;;;;;;2.83;100.00;95092.09;4967926;28;20042;-75
2022/09/29 05:43:17;;;;;;;0.10;0.10;;;;;;;2.85;100.00;95092.66;4952634;28;20050;-75
2022/09/29 05:46:05;;;;;;;0.10;0.10;;;;;;;2.86;100.00;95094.25;4968665;28;20053;-74
2022/09/29 05:48:51;;;;;;;0.10;0.10;;;;;;;2.80;100.00;95092.53;4967909;28;20691;-74
2022/09/29 05:51:37;;;;;;;0.10;0.10;;;;;;;2.81;100.00;95093.38;4966418;28;20344;-74
2022/09/29 05:54:24;;;;;;;0.20;0.10;;;;;;;2.76;100.00;95099.34;4968262;28;20046;-74
2022/09/29 05:57:09;;;;;;;0.10;0.10;;;;;;;2.74;100.00;95090.84;4965964;28;20367;-74
2022/09/29 05:59:55;;;;;;;0.10;0.10;;;;;;;2.66;100.00;95097.28;4966202;28;20050;-74
2022/09/29 06:02:41;;;;;;;0.10;0.10;;;;;;;2.61;100.00;95101.66;4963983;28;20038;-74
2022/09/29 06:05:28;;;;;;;0.10;0.10;;;;;;;2.61;100.00;95110.38;4964296;28;20042;-74
2022/09/29 06:08:14;;;;;;;0.10;0.10;;;;;;;2.63;100.00;95103.03;4967842;28;20072;-75
2022/09/29 06:11:05;;;;;;;0.10;0.10;;;;;;;2.70;100.00;95113.47;4967223;28;20065;-75
2022/09/29 06:13:52;;;;;;;0.10;0.10;;;;;;;2.72;100.00;95103.47;4953236;28;20435;-75
2022/09/29 06:16:38;;;;;;;0.10;0.10;;;;;;;2.81;100.00;95115.31;4969076;28;20273;-74
2022/09/29 06:19:24;;;;;;;0.10;0.10;;;;;;;2.86;100.00;95112.75;4967657;28;20350;-75
2022/09/29 06:22:09;;;;;;;0.10;0.10;;;;;;;2.91;100.00;95112.06;4955863;28;20051;-75
2022/09/29 06:24:56;;;;;;;0.10;0.10;;;;;;;2.95;100.00;95110.56;4967546;28;20486;-75
2022/09/29 06:27:42;;;;;;;0.10;0.10;;;;;;;2.99;100.00;95106.41;4968152;28;20526;-75
2022/09/29 06:30:27;;;;;;;0.10;0.10;;;;;;;3.04;100.00;95114.47;4952857;28;20096;-75
2022/09/29 06:33:13;;;;;;;0.20;0.20;;;;;;;3.12;100.00;95111.44;4968297;28;20647;-75
2022/09/29 06:39:15;;;;;;;0.10;0.10;;;;;;;3.31;100.00;95114.72;4965852;28;20425;-75
2022/09/29 06:42:04;;;;;;;0.13;0.13;;;;;;;3.46;100.00;95112.34;4967706;28;20050;-75
2022/09/29 06:44:50;;;;;;;0.17;0.10;;;;;;;3.55;100.00;95116.22;4968469;28;20247;-76
2022/09/29 06:47:36;;;;;;;0.13;0.13;;;;;;;3.66;100.00;95119.06;4957813;28;20329;-76
2022/09/29 06:50:22;;;;;;;0.10;0.10;;;;;;;3.73;100.00;95117.84;4966448;28;20050;-75
2022/09/29 06:53:08;;;;;;;0.10;0.10;;;;;;;3.82;100.00;95126.25;4968113;28;20045;-76
2022/09/29 06:55:57;;;;;;;0.10;0.10;;;;;;;3.92;100.00;95121.91;4967314;28;20514;-75
2022/09/29 06:58:44;;;;;;;0.10;0.10;;;;;;;4.04;100.00;95121.03;4966485;28;20039;-74
2022/09/29 07:01:30;;;;;;;0.10;0.10;;;;;;;4.06;100.00;95125.06;4963538;28;20054;-75
2022/09/29 07:04:17;;;;;;;0.10;0.10;;;;;;;4.10;100.00;95125.38;4952868;28;20129;-75
2022/09/29 07:07:03;;;;;;;0.10;0.10;;;;;;;4.18;100.00;95124.97;4963828;28;20133;-75
2022/09/29 07:09:49;;;;;;;0.10;0.10;;;;;;;4.28;100.00;95132.28;4967724;28;20038;-75
2022/09/29 07:12:35;;;;;;;0.10;0.10;;;;;;;4.32;100.00;95130.75;4967756;28;20178;-76
2022/09/29 07:15:21;;;;;;;0.10;0.10;;;;;;;4.40;100.00;95135.66;4966463;28;20054;-76
2022/09/29 07:18:09;;;;;;;0.10;0.10;;;;;;;4.45;100.00;95133.91;4967458;28;20429;-77
2022/09/29 07:20:55;;;;;;;0.10;0.10;;;;;;;4.49;100.00;95131.56;4963424;28;20093;-74
2022/09/29 07:23:41;;;;;;;0.10;0.10;;;;;;;4.55;100.00;95125.28;4967384;28;21622;-76
2022/09/29 07:26:27;;;;;;;0.10;0.10;;;;;;;4.64;100.00;95131.78;4969547;28;20149;-75
2022/09/29 07:29:13;;;;;;;0.10;0.10;;;;;;;4.69;100.00;95131.84;4972198;28;20525;-74
2022/09/29 07:31:59;;;;;;;0.10;0.10;;;;;;;4.80;100.00;95137.28;4972065;28;20083;-74
2022/09/29 07:34:45;;;;;;;0.10;0.10;;;;;;;4.87;100.00;95144.03;4973358;28;20066;-74
2022/09/29 07:37:31;;;;;;;0.10;0.10;;;;;;;5.03;100.00;95142.38;4969630;28;20069;-74
2022/09/29 07:40:17;;;;;;;0.10;0.10;;;;;;;5.15;100.00;95142.28;4969232;28;20076;-74
2022/09/29 07:43:02;;;;;;;0.10;0.10;;;;;;;5.29;100.00;95146.97;4971156;28;20049;-74
2022/09/29 07:45:50;;;;;;;0.10;0.10;;;;;;;5.42;100.00;95150.28;4971059;28;20046;-74
2022/09/29 07:48:37;;;;;;;0.13;0.13;;;;;;;5.51;100.00;95154.09;4959594;28;20510;-75
2022/09/29 07:51:22;;;;;;;0.10;0.10;;;;;;;5.64;100.00;95148.44;4957927;28;20405;-75
2022/09/29 07:54:08;;;;;;;0.10;0.10;;;;;;;5.83;100.00;95154.19;4970408;28;20387;-75
2022/09/29 07:56:54;;;;;;;0.10;0.10;;;;;;;5.92;100.00;95154.59;4954674;28;20368;-74
2022/09/29 07:59:40;;;;;;;0.10;0.10;;;;;;;5.94;100.00;95158.59;4969870;28;20046;-74
2022/09/29 08:02:26;;;;;;;0.10;0.10;;;;;;;6.03;100.00;95156.28;4969122;28;20504;-74
2022/09/29 08:05:12;;;;;;;0.10;0.10;;;;;;;6.11;100.00;95159.28;4966567;28;20603;-75
2022/09/29 08:08:03;;;;;;;0.20;0.17;;;;;;;6.24;100.00;95157.28;4969323;28;20535;-74
2022/09/29 08:10:49;;;;;;;0.10;0.10;;;;;;;6.31;100.00;95158.69;4968590;28;20392;-74
2022/09/29 08:13:35;;;;;;;0.10;0.10;;;;;;;6.44;100.00;95152.13;4970798;28;20070;-75
2022/09/29 08:16:21;;;;;;;0.10;0.10;;;;;;;6.55;100.00;95153.03;4968100;28;20094;-75
2022/09/29 08:19:07;;;;;;;0.10;0.10;;;;;;;6.70;100.00;95158.44;4969231;28;20156;-75
2022/09/29 08:21:53;;;;;;;0.20;0.20;;;;;;;6.90;100.00;95150.59;4967651;28;20534;-75
2022/09/29 08:24:39;;;;;;;0.10;0.10;;;;;;;7.06;100.00;95145.38;4969172;28;20049;-75
2022/09/29 08:27:25;;;;;;;0.10;0.10;;;;;;;7.16;100.00;95142.75;4955670;28;20045;-75
2022/09/29 08:30:11;;;;;;;0.10;0.10;;;;;;;7.22;100.00;95150.50;4969520;28;20105;-75
2022/09/29 08:32:57;;;;;;;0.10;0.10;;;;;;;7.33;100.00;95145.25;4953655;28;20051;-75
2022/09/29 08:35:43;;;;;;;0.10;0.10;;;;;;;7.53;100.00;95148.78;4968715;28;20051;-75
2022/09/29 08:38:30;;;;;;;0.10;0.10;;;;;;;7.68;100.00;95149.88;4969448;28;20122;-75
2022/09/29 08:41:49;;;;;;;0.10;0.10;;;;;;;7.80;100.00;95159.25;4966932;28;20632;-74
2022/09/29 08:44:43;;;;;;;0.10;0.10;;;;;;;7.92;100.00;95158.22;4971172;28;20432;-75
2022/09/29 08:47:35;;;;;;;0.20;0.20;;;;;;;7.98;100.00;95168.63;4969982;28;20828;-75
2022/09/29 08:50:21;;;;;;;;;;;;;;;8.22;100.00;95165.47;4957798;28;20132;-76
2022/09/29 08:53:11;;;;;;;0.10;0.10;;;;;;;8.43;100.00;95169.00;4970067;28;20289;-76
2022/09/29 08:56:05;;;;;;;0.10;0.10;;;;;;;8.58;100.00;95167.13;4966756;28;20043;-76
2022/09/29 08:58:51;;;;;;;0.10;0.10;;;;;;;8.69;100.00;95170.59;4971507;28;20279;-76
2022/09/29 09:02:22;;;;;;;0.10;0.10;;;;;;;8.72;100.00;95162.06;4967092;28;20039;-76
2022/09/29 09:05:17;;;;;;;0.10;0.10;;;;;;;8.93;100.00;95168.97;4962743;28;20251;-76
2022/09/29 09:08:26;;;;;;;0.15;0.10;;;;;;;8.96;100.00;95164.97;4969712;28;20050;-76
2022/09/29 09:11:21;;;;;;;0.10;0.10;;;;;;;9.12;100.00;95171.88;4969199;28;20062;-76
2022/09/29 09:14:37;;;;;;;0.10;0.10;;;;;;;9.56;100.00;95168.53;4959160;28;20047;-76
2022/09/29 09:17:38;;;;;;;0.10;0.10;;;;;;;10.01;100.00;95164.06;4968471;28;20050;-76
2022/09/29 09:20:31;;;;;;;0.10;0.10;;;;;;;10.77;100.00;95168.94;4967763;28;20046;-76
2022/09/29 09:23:54;;;;;;;0.10;0.10;;;;;;;10.93;100.00;95174.16;4970351;28;20497;-76
2022/09/29 09:26:43;;;;;;;0.10;0.10;;;;;;;11.30;100.00;95178.88;4968479;28;20246;-76
2022/09/29 09:29:37;;;;;;;0.10;0.10;;;;;;;11.28;100.00;95176.47;4969825;28;20053;-76
2022/09/29 09:32:29;;;;;;;0.10;0.10;;;;;;;11.25;100.00;95185.09;4968105;28;20054;-76
2022/09/29 09:35:28;;;;;;;0.10;0.10;;;;;;;11.20;100.00;95174.41;4972206;28;20050;-76
2022/09/29 09:38:24;;;;;;;0.10;0.10;;;;;;;11.20;100.00;95182.44;4970282;28;20054;-76
2022/09/29 09:41:15;;;;;;;0.10;0.10;;;;;;;11.29;100.00;95178.09;4967106;28;20042;-76
2022/09/29 09:44:08;;;;;;;0.10;0.10;;;;;;;11.01;100.00;95182.38;4971652;28;20548;-76
2022/09/29 09:47:26;;;;;;;0.10;0.10;;;;;;;11.19;100.00;95174.69;4968665;28;20049;-76
2022/09/29 09:50:17;;;;;;;0.10;0.10;;;;;;;11.19;100.00;95177.38;4965502;28;20050;-76
2022/09/29 09:53:14;;;;;;;0.10;0.10;;;;;;;10.93;100.00;95171.47;4968071;28;20568;-76
2022/09/29 09:56:22;;;;;;;0.10;0.10;;;;;;;10.27;100.00;95184.28;4966580;28;20548;-76
2022/09/29 09:59:27;;;;;;;0.10;0.10;;;;;;;10.17;100.00;95180.81;4953398;28;20585;-76
2022/09/29 10:02:23;;;;;;;0.10;0.10;;;;;;;10.52;100.00;95187.84;4965866;28;20534;-76
2022/09/29 10:05:12;;;;;;;0.10;0.10;;;;;;;10.69;100.00;95193.59;4966762;28;20288;-76
2022/09/29 10:07:58;;;;;;;0.10;0.10;;;;;;;10.41;100.00;95178.28;4968672;28;20037;-76
2022/09/29 10:10:44;;;;;;;0.10;0.10;;;;;;;10.37;100.00;95167.38;4966606;28;20121;-76
2022/09/29 10:13:30;;;;;;;0.10;0.10;;;;;;;11.22;100.00;95187.53;4967448;28;20054;-76
2022/09/29 10:16:24;;;;;;;0.20;0.20;;;;;;;13.61;100.00;95178.75;4966840;28;20456;-77
2022/09/29 10:19:10;;;;;;;0.10;0.10;;;;;;;15.96;100.00;95174.88;4950909;28;20049;-76
2022/09/29 10:22:12;;;;;;;0.20;0.20;;;;;;;15.25;91.31;95174.88;4967701;28;20054;-76
2022/09/29 10:25:14;;;;;;;0.10;0.10;;;;;;;16.63;75.12;95162.91;4488196;28;10001206;-77
2022/09/29 10:28:00;;;;;;;0.10;0.10;;;;;;;16.39;81.45;95168.75;4964197;28;20628;-77
2022/09/29 10:30:46;;;;;;;0.10;0.10;;;;;;;14.07;98.82;95173.25;4953716;28;20050;-77
2022/09/29 10:33:32;;;;;;;0.10;0.10;;;;;;;12.80;100.00;95184.44;4965280;28;20081;-76
2022/09/29 10:36:20;;;;;;;0.10;0.10;;;;;;;12.13;100.00;95181.13;4953357;28;20561;-76
2022/09/29 10:39:29;;;;;;;0.10;0.10;;;;;;;14.15;91.35;95186.00;4966792;28;20423;-76
2022/09/29 10:42:15;;;;;;;0.10;0.10;;;;;;;13.32;96.82;95195.19;4966699;28;20038;-77
2022/09/29 10:45:14;;;;;;;0.10;0.10;;;;;;;15.89;68.90;95190.72;4967675;28;20046;-76
2022/09/29 10:48:00;;;;;;;0.10;0.10;;;;;;;14.79;86.81;95190.56;4968526;28;20050;-77
2022/09/29 10:50:58;;;;;;;0.10;0.10;;;;;;;14.54;79.28;95186.53;4965887;28;20125;-76
2022/09/29 10:53:44;;;;;;;0.20;0.20;;;;;;;18.90;54.73;95179.53;4954062;28;20485;-77
2022/09/29 10:56:30;;;;;;;0.20;0.20;;;;;;;20.80;47.88;95181.91;4967247;28;20048;-77
2022/09/29 10:59:17;;;;;;;0.20;0.20;;;;;;;20.22;46.69;95183.22;4953024;28;20057;-77
2022/09/29 11:02:03;;;;;;;0.20;0.20;;;;;;;18.19;52.31;95181.44;4966097;28;20121;-77
2022/09/29 11:04:50;;;;;;;0.20;0.20;;;;;;;20.88;43.38;95182.13;4967512;28;20178;-77
2022/09/29 11:07:43;;;;;;;0.20;0.20;;;;;;;23.58;36.63;95179.63;4968510;28;20506;-77
2022/09/29 11:10:32;;;;;;;0.10;0.10;;;;;;;22.94;37.29;95179.13;4966224;28;20049;-78
2022/09/29 11:13:18;;;;;;;0.00;0.00;;;;;;;23.79;35.52;95179.22;4964564;28;20050;-78
2022/09/29 11:16:10;;;;;;;0.10;0.10;;;;;;;21.74;36.82;95183.31;4965740;28;20057;-77
2022/09/29 11:19:02;;;;;;;0.10;0.10;;;;;;;23.22;35.24;95178.94;4966010;28;20031;-77
2022/09/29 11:21:56;;;;;;;0.20;0.20;;;;;;;26.19;30.97;95179.25;4965147;28;20046;-77
2022/09/29 11:25:09;;;;;;;0.20;0.20;;;;;;;26.82;28.72;95175.38;4971000;28;20039;-77
2022/09/29 11:28:10;;;;;;;0.10;0.10;;;;;;;27.40;29.13;95181.97;4972417;28;20038;-77
2022/09/29 11:31:35;;;;;;;0.10;0.10;;;;;;;27.28;29.29;95179.56;4940399;28;20189;-78
2022/09/29 11:34:45;;;;;;;0.20;0.20;;;;;;;30.22;25.92;95176.75;4937638;28;20568;-77
2022/09/29 11:37:43;;;;;;;0.10;0.10;;;;;;;29.28;25.45;95177.66;4964940;28;20078;-77
2022/09/29 11:41:06;;;;;;;0.03;0.03;;;;;;;27.25;27.86;95180.34;4968258;28;20046;-77
2022/09/29 11:44:00;;;;;;;0.00;0.00;;;;;;;22.63;34.71;95199.09;4967440;28;20070;-77
2022/09/29 11:47:17;;;;;;;0.00;0.00;;;;;;;18.44;44.52;95201.34;4964268;28;20082;-77
2022/09/29 11:50:06;;;;;;;0.00;0.00;;;;;;;18.73;45.46;95204.06;4967958;28;20047;-76
2022/09/29 11:52:58;;;;;;;0.10;0.10;;;;;;;20.70;41.53;95206.88;4966471;28;20571;-76
2022/09/29 11:56:03;;;;;;;0.10;0.10;;;;;;;23.12;37.26;95200.56;4966446;28;20053;-76
2022/09/29 11:59:01;;;;;;;0.20;0.20;;;;;;;23.59;39.95;95200.31;4954110;28;20129;-76
2022/09/29 12:02:19;;;;;;;0.00;0.00;;;;;;;22.23;42.14;95202.06;4963764;28;20541;-76
2022/09/29 12:05:32;;;;;;;0.03;0.03;;;;;;;20.76;47.03;95200.03;4954770;28;20077;-76
2022/09/29 12:08:52;;;;;;;0.10;0.10;;;;;;;19.39;55.33;95204.13;4966665;28;20044;-76
2022/09/29 12:11:59;;;;;;;0.10;0.10;;;;;;;24.79;40.16;95198.00;4969131;28;20121;-76
2022/09/29 12:15:10;;;;;;;0.10;0.10;;;;;;;24.74;37.96;95203.78;4971261;28;20506;-77
2022/09/29 12:18:02;;;;;;;0.00;0.00;;;;;;;22.16;46.51;95196.44;4973316;28;20046;-76
2022/09/29 12:20:52;;;;;;;0.13;0.13;;;;;;;20.49;57.94;95207.00;4970086;28;20050;-76
2022/09/29 12:23:41;;;;;;;0.10;0.10;;;;;;;19.87;61.53;95212.75;4972056;28;20077;-76
2022/09/29 12:26:29;;;;;;;0.10;0.10;;;;;;;19.06;70.23;95206.03;4972480;28;20131;-76
2022/09/29 12:29:42;;;;;;;0.00;0.00;;;;;;;17.85;76.11;95217.59;4970874;28;20337;-76
2022/09/29 12:32:35;;;;;;;0.10;0.10;;;;;;;15.46;93.09;95220.94;4971663;28;20054;-76
2022/09/29 12:35:51;;;;;;;0.10;0.10;;;;;;;14.55;100.00;95218.53;4971501;28;20053;-76
2022/09/29 12:38:42;;;;;;;0.00;0.00;;;;;;;14.66;100.00;95225.31;4968241;28;20062;-75
2022/09/29 12:41:32;;;;;;;0.17;0.10;;;;;;;14.31;99.74;95226.03;4970241;28;20516;-75
2022/09/29 12:44:29;;;;;;;0.10;0.10;;;;;;;14.08;100.00;95217.88;4970076;28;20053;-76
2022/09/29 12:47:32;;;;;;;0.10;0.10;;;;;;;13.85;100.00;95221.56;4969773;28;20138;-75
2022/09/29 12:50:29;;;;;;;0.10;0.10;;;;;;;13.31;100.00;95223.13;4971712;28;20152;-75
2022/09/29 12:53:33;;;;;;;0.10;0.10;;;;;;;12.92;100.00;95234.19;4970200;28;20046;-75
2022/09/29 12:56:25;;;;;;;0.10;0.10;;;;;;;13.01;100.00;95230.56;4968747;28;20514;-75
2022/09/29 12:59:32;;;;;;;0.10;0.10;;;;;;;13.00;100.00;95241.63;4969501;28;20488;-75
2022/09/29 13:02:21;;;;;;;0.00;0.00;;;;;;;13.40;100.00;95242.84;4953824;28;20471;-75
2022/09/29 13:05:10;;;;;;;0.10;0.10;;;;;;;13.20;100.00;95243.97;4970185;28;20379;-76
2022/09/29 13:08:33;;;;;;;0.10;0.10;;;;;;;13.36;100.00;95244.53;4970024;28;20542;-75
2022/09/29 13:11:40;;;;;;;0.10;0.10;;;;;;;15.37;98.18;95238.19;4967674;28;20038;-76
2022/09/29 13:14:54;;;;;;;0.10;0.10;;;;;;;15.14;96.58;95246.28;4967871;28;20058;-76
2022/09/29 13:17:48;;;;;;;0.10;0.10;;;;;;;14.86;98.42;95242.09;4970047;28;20459;-76
2022/09/29 13:20:51;;;;;;;0.10;0.10;;;;;;;15.15;96.54;95245.16;4967630;28;20049;-75
2022/09/29 13:24:28;;;;;;;0.10;0.10;;;;;;;14.66;97.04;95240.66;4969309;28;20042;-75
2022/09/29 13:27:35;;;;;;;0.10;0.10;;;;;;;13.38;100.00;95245.84;4891219;28;20066;-75
2022/09/29 13:30:32;;;;;;;0.10;0.10;;;;;;;12.66;100.00;95239.94;4966037;28;20043;-75
2022/09/29 13:33:24;;;;;;;0.10;0.10;;;;;;;12.85;100.00;95239.97;4968001;28;20046;-75